sensor_id;sensor_type;location;lat;lon;timestamp;temperature;humidity
8953;DHT22;4511;50.890;8.054;2022-12-07T00:01:21;3.60;99.90
8953;DHT22;4511;50.890;8.054;2022-12-07T00:03:49;3.70;99.90
8953;DHT22;4511;50.890;8.054;2022-12-07T00:06:17;3.70;99.90
8953;DHT22;4511;50.890;8.054;2022-12-07T00:08:44;3.70;99.90
8953;DHT22;4511;50.890;8.054;2022-12-07T00:11:11;3.70;99.90
8953;DHT22;4511;50.890;8.054;2022-12-07T00:13:39;3.60;99.90
8953;DHT22;4511;50.890;8.054;2022-12-07T00:16:07;3.70;99.90
8953;DHT22;4511;50.890;8.054;2022-12-07T00:18:34;3.70;99.90
8953;DHT22;4511;50.890;8.054;2022-12-07T00:21:00;3.70;99.90
8953;DHT22;4511;50.890;8.054;2022-12-07T00:23:29;3.70;99.90
8953;DHT22;4511;50.890;8.054;2022-12-07T00:25:55;3.70;99.90
8953;DHT22;4511;50.890;8.054;2022-12-07T00:28:22;3.70;99.90
8953;DHT22;4511;50.890;8.054;2022-12-07T00:30:49;3.70;99.90
8953;DHT22;4511;50.890;8.054;2022-12-07T00:33:15;3.70;99.90
8953;DHT22;4511;50.890;8.054;2022-12-07T00:35:42;3.70;99.90
8953;DHT22;4511;50.890;8.054;2022-12-07T00:38:08;3.70;99.90
8953;DHT22;4511;50.890;8.054;2022-12-07T00:40:36;3.80;99.90
8953;DHT22;4511;50.890;8.054;2022-12-07T00:43:03;3.70;99.90
8953;DHT22;4511;50.890;8.054;2022-12-07T00:45:30;3.70;99.90
8953;DHT22;4511;50.890;8.054;2022-12-07T00:47:56;3.70;99.90
8953;DHT22;4511;50.890;8.054;2022-12-07T00:50:24;3.80;99.90
8953;DHT22;4511;50.890;8.054;2022-12-07T00:52:50;3.80;99.90
8953;DHT22;4511;50.890;8.054;2022-12-07T00:55:17;3.80;99.90
8953;DHT22;4511;50.890;8.054;2022-12-07T00:57:45;3.70;99.90
8953;DHT22;4511;50.890;8.054;2022-12-07T01:00:11;3.70;99.90
8953;DHT22;4511;50.890;8.054;2022-12-07T01:02:39;3.70;99.90
8953;DHT22;4511;50.890;8.054;2022-12-07T01:05:06;3.70;99.90
8953;DHT22;4511;50.890;8.054;2022-12-07T01:07:33;3.80;99.90
8953;DHT22;4511;50.890;8.054;2022-12-07T01:09:59;3.70;99.90
8953;DHT22;4511;50.890;8.054;2022-12-07T01:12:26;3.70;99.90
8953;DHT22;4511;50.890;8.054;2022-12-07T01:14:54;3.80;99.90
8953;DHT22;4511;50.890;8.054;2022-12-07T01:17:21;3.70;99.90
8953;DHT22;4511;50.890;8.054;2022-12-07T01:19:47;3.80;99.90
8953;DHT22;4511;50.890;8.054;2022-12-07T01:22:14;3.80;99.90
8953;DHT22;4511;50.890;8.054;2022-12-07T01:24:40;3.80;99.90
8953;DHT22;4511;50.890;8.054;2022-12-07T01:27:07;3.90;99.90
8953;DHT22;4511;50.890;8.054;2022-12-07T01:29:34;3.80;99.90
8953;DHT22;4511;50.890;8.054;2022-12-07T01:32:02;3.80;99.90
8953;DHT22;4511;50.890;8.054;2022-12-07T01:34:28;3.80;99.90
8953;DHT22;4511;50.890;8.054;2022-12-07T01:36:55;3.80;99.90
8953;DHT22;4511;50.890;8.054;2022-12-07T01:39:22;3.80;99.90
8953;DHT22;4511;50.890;8.054;2022-12-07T01:41:50;3.90;99.90
8953;DHT22;4511;50.890;8.054;2022-12-07T01:44:17;3.90;99.90
8953;DHT22;4511;50.890;8.054;2022-12-07T01:46:45;3.80;99.90
8953;DHT22;4511;50.890;8.054;2022-12-07T01:49:14;3.90;99.90
8953;DHT22;4511;50.890;8.054;2022-12-07T01:51:43;3.90;99.90
8953;DHT22;4511;50.890;8.054;2022-12-07T01:54:11;3.90;99.90
8953;DHT22;4511;50.890;8.054;2022-12-07T01:56:38;3.90;99.90
8953;DHT22;4511;50.890;8.054;2022-12-07T01:59:05;3.90;99.90
8953;DHT22;4511;50.890;8.054;2022-12-07T02:01:31;3.80;99.90
8953;DHT22;4511;50.890;8.054;2022-12-07T02:03:58;3.80;99.90
8953;DHT22;4511;50.890;8.054;2022-12-07T02:06:26;3.80;99.90
8953;DHT22;4511;50.890;8.054;2022-12-07T02:08:53;3.80;99.90
8953;DHT22;4511;50.890;8.054;2022-12-07T02:11:19;3.80;99.90
8953;DHT22;4511;50.890;8.054;2022-12-07T02:13:47;3.80;99.90
8953;DHT22;4511;50.890;8.054;2022-12-07T02:16:17;3.80;99.90
8953;DHT22;4511;50.890;8.054;2022-12-07T02:18:48;3.90;99.90
8953;DHT22;4511;50.890;8.054;2022-12-07T02:21:20;3.80;99.90
8953;DHT22;4511;50.890;8.054;2022-12-07T02:24:08;3.90;99.90
8953;DHT22;4511;50.890;8.054;2022-12-07T02:26:44;3.90;99.90
8953;DHT22;4511;50.890;8.054;2022-12-07T02:29:18;3.90;99.90
8953;DHT22;4511;50.890;8.054;2022-12-07T02:31:46;3.90;99.90
8953;DHT22;4511;50.890;8.054;2022-12-07T02:34:19;3.90;99.90
8953;DHT22;4511;50.890;8.054;2022-12-07T02:36:52;3.90;99.90
8953;DHT22;4511;50.890;8.054;2022-12-07T02:39:22;3.90;99.90
8953;DHT22;4511;50.890;8.054;2022-12-07T02:41:52;3.90;99.90
8953;DHT22;4511;50.890;8.054;2022-12-07T02:44:21;3.90;99.90
8953;DHT22;4511;50.890;8.054;2022-12-07T02:46:50;3.90;99.90
8953;DHT22;4511;50.890;8.054;2022-12-07T02:49:20;3.90;99.90
8953;DHT22;4511;50.890;8.054;2022-12-07T02:51:48;3.90;99.90
8953;DHT22;4511;50.890;8.054;2022-12-07T02:54:15;4.00;99.90
8953;DHT22;4511;50.890;8.054;2022-12-07T02:56:44;4.00;99.90
8953;DHT22;4511;50.890;8.054;2022-12-07T02:59:15;4.00;99.90
8953;DHT22;4511;50.890;8.054;2022-12-07T03:01:46;4.00;99.90
8953;DHT22;4511;50.890;8.054;2022-12-07T03:04:19;4.10;99.90
8953;DHT22;4511;50.890;8.054;2022-12-07T03:06:52;4.10;99.90
8953;DHT22;4511;50.890;8.054;2022-12-07T03:09:20;4.10;99.90
8953;DHT22;4511;50.890;8.054;2022-12-07T03:11:50;4.00;99.90
8953;DHT22;4511;50.890;8.054;2022-12-07T03:14:22;4.10;99.90
8953;DHT22;4511;50.890;8.054;2022-12-07T03:16:52;4.10;99.90
8953;DHT22;4511;50.890;8.054;2022-12-07T03:19:20;4.00;99.90
8953;DHT22;4511;50.890;8.054;2022-12-07T03:21:49;4.10;99.90
8953;DHT22;4511;50.890;8.054;2022-12-07T03:24:19;4.00;99.90
8953;DHT22;4511;50.890;8.054;2022-12-07T03:26:47;4.00;99.90
8953;DHT22;4511;50.890;8.054;2022-12-07T03:29:17;4.00;99.90
8953;DHT22;4511;50.890;8.054;2022-12-07T03:31:46;4.00;99.90
8953;DHT22;4511;50.890;8.054;2022-12-07T03:34:16;4.00;99.90
8953;DHT22;4511;50.890;8.054;2022-12-07T03:36:45;4.10;99.90
8953;DHT22;4511;50.890;8.054;2022-12-07T03:39:15;4.10;99.90
8953;DHT22;4511;50.890;8.054;2022-12-07T03:41:43;4.10;99.90
8953;DHT22;4511;50.890;8.054;2022-12-07T03:44:11;4.10;99.90
8953;DHT22;4511;50.890;8.054;2022-12-07T03:46:41;4.10;99.90
8953;DHT22;4511;50.890;8.054;2022-12-07T03:49:11;4.20;99.90
8953;DHT22;4511;50.890;8.054;2022-12-07T03:51:42;4.10;99.90
8953;DHT22;4511;50.890;8.054;2022-12-07T03:54:12;4.10;99.90
8953;DHT22;4511;50.890;8.054;2022-12-07T03:56:40;4.10;99.90
8953;DHT22;4511;50.890;8.054;2022-12-07T03:59:07;4.10;99.90
8953;DHT22;4511;50.890;8.054;2022-12-07T04:01:34;4.10;99.90
8953;DHT22;4511;50.890;8.054;2022-12-07T04:04:00;4.10;99.90
8953;DHT22;4511;50.890;8.054;2022-12-07T04:06:27;4.10;99.90
8953;DHT22;4511;50.890;8.054;2022-12-07T04:08:55;4.20;99.90
8953;DHT22;4511;50.890;8.054;2022-12-07T04:11:22;4.20;99.90
8953;DHT22;4511;50.890;8.054;2022-12-07T04:13:49;4.20;99.90
8953;DHT22;4511;50.890;8.054;2022-12-07T04:16:34;4.20;99.90
8953;DHT22;4511;50.890;8.054;2022-12-07T04:19:01;4.20;99.90
8953;DHT22;4511;50.890;8.054;2022-12-07T04:21:28;4.20;99.90
8953;DHT22;4511;50.890;8.054;2022-12-07T04:23:56;4.20;99.90
8953;DHT22;4511;50.890;8.054;2022-12-07T04:26:23;4.30;99.90
8953;DHT22;4511;50.890;8.054;2022-12-07T04:28:49;4.20;99.90
8953;DHT22;4511;50.890;8.054;2022-12-07T04:31:16;4.30;99.90
8953;DHT22;4511;50.890;8.054;2022-12-07T04:33:42;4.30;99.90
8953;DHT22;4511;50.890;8.054;2022-12-07T04:36:09;4.30;99.90
8953;DHT22;4511;50.890;8.054;2022-12-07T04:38:37;4.30;99.90
8953;DHT22;4511;50.890;8.054;2022-12-07T04:41:06;4.30;99.90
8953;DHT22;4511;50.890;8.054;2022-12-07T04:43:32;4.40;99.90
8953;DHT22;4511;50.890;8.054;2022-12-07T04:45:59;4.30;99.90
8953;DHT22;4511;50.890;8.054;2022-12-07T04:48:26;4.40;99.90
8953;DHT22;4511;50.890;8.054;2022-12-07T04:50:53;4.40;99.90
8953;DHT22;4511;50.890;8.054;2022-12-07T04:53:19;4.40;99.90
8953;DHT22;4511;50.890;8.054;2022-12-07T04:55:46;4.30;99.90
8953;DHT22;4511;50.890;8.054;2022-12-07T04:58:14;4.40;99.90
8953;DHT22;4511;50.890;8.054;2022-12-07T05:00:41;4.40;99.90
8953;DHT22;4511;50.890;8.054;2022-12-07T05:03:08;4.40;99.90
8953;DHT22;4511;50.890;8.054;2022-12-07T05:05:34;4.40;99.90
8953;DHT22;4511;50.890;8.054;2022-12-07T05:08:01;4.40;99.90
8953;DHT22;4511;50.890;8.054;2022-12-07T05:10:27;4.40;99.90
8953;DHT22;4511;50.890;8.054;2022-12-07T05:12:54;4.40;99.90
8953;DHT22;4511;50.890;8.054;2022-12-07T05:15:22;4.40;99.90
8953;DHT22;4511;50.890;8.054;2022-12-07T05:17:49;4.40;99.90
8953;DHT22;4511;50.890;8.054;2022-12-07T05:20:17;4.30;99.90
8953;DHT22;4511;50.890;8.054;2022-12-07T05:22:44;4.30;99.90
8953;DHT22;4511;50.890;8.054;2022-12-07T05:25:10;4.30;99.90
8953;DHT22;4511;50.890;8.054;2022-12-07T05:27:37;4.30;99.90
8953;DHT22;4511;50.890;8.054;2022-12-07T05:30:05;4.30;99.90
8953;DHT22;4511;50.890;8.054;2022-12-07T05:32:33;4.30;99.90
8953;DHT22;4511;50.890;8.054;2022-12-07T05:34:59;4.30;99.90
8953;DHT22;4511;50.890;8.054;2022-12-07T05:37:26;4.30;99.90
8953;DHT22;4511;50.890;8.054;2022-12-07T05:39:53;4.30;99.90
8953;DHT22;4511;50.890;8.054;2022-12-07T05:42:19;4.30;99.90
8953;DHT22;4511;50.890;8.054;2022-12-07T05:44:46;4.30;99.90
8953;DHT22;4511;50.890;8.054;2022-12-07T05:47:13;4.20;99.90
8953;DHT22;4511;50.890;8.054;2022-12-07T05:49:42;4.20;99.90
8953;DHT22;4511;50.890;8.054;2022-12-07T05:52:08;4.10;99.90
8953;DHT22;4511;50.890;8.054;2022-12-07T05:54:35;4.20;99.90
8953;DHT22;4511;50.890;8.054;2022-12-07T05:57:02;4.40;99.90
8953;DHT22;4511;50.890;8.054;2022-12-07T05:59:28;4.50;99.90
8953;DHT22;4511;50.890;8.054;2022-12-07T06:01:55;4.50;99.90
8953;DHT22;4511;50.890;8.054;2022-12-07T06:04:22;4.40;99.90
8953;DHT22;4511;50.890;8.054;2022-12-07T06:06:51;4.40;99.90
8953;DHT22;4511;50.890;8.054;2022-12-07T06:09:18;4.60;99.90
8953;DHT22;4511;50.890;8.054;2022-12-07T06:11:44;4.40;99.90
8953;DHT22;4511;50.890;8.054;2022-12-07T06:14:29;4.30;99.90
8953;DHT22;4511;50.890;8.054;2022-12-07T06:16:55;4.30;99.90
8953;DHT22;4511;50.890;8.054;2022-12-07T06:19:22;4.30;99.90
8953;DHT22;4511;50.890;8.054;2022-12-07T06:21:50;4.20;99.90
8953;DHT22;4511;50.890;8.054;2022-12-07T06:24:17;4.20;99.90
8953;DHT22;4511;50.890;8.054;2022-12-07T06:26:44;4.20;99.90
8953;DHT22;4511;50.890;8.054;2022-12-07T06:29:11;4.20;99.90
8953;DHT22;4511;50.890;8.054;2022-12-07T06:31:39;4.20;99.90
8953;DHT22;4511;50.890;8.054;2022-12-07T06:34:06;4.20;99.90
8953;DHT22;4511;50.890;8.054;2022-12-07T06:36:33;4.20;99.90
8953;DHT22;4511;50.890;8.054;2022-12-07T06:39:01;4.20;99.90
8953;DHT22;4511;50.890;8.054;2022-12-07T06:41:28;4.20;99.90
8953;DHT22;4511;50.890;8.054;2022-12-07T06:43:54;4.20;99.90
8953;DHT22;4511;50.890;8.054;2022-12-07T06:46:21;4.20;99.90
8953;DHT22;4511;50.890;8.054;2022-12-07T06:48:48;4.20;99.90
8953;DHT22;4511;50.890;8.054;2022-12-07T06:51:15;4.10;99.90
8953;DHT22;4511;50.890;8.054;2022-12-07T06:53:41;4.20;99.90
8953;DHT22;4511;50.890;8.054;2022-12-07T06:56:10;4.20;99.90
8953;DHT22;4511;50.890;8.054;2022-12-07T06:58:37;4.10;99.90
8953;DHT22;4511;50.890;8.054;2022-12-07T07:01:08;4.10;99.90
8953;DHT22;4511;50.890;8.054;2022-12-07T07:03:35;4.10;99.90
8953;DHT22;4511;50.890;8.054;2022-12-07T07:06:01;4.10;99.90
8953;DHT22;4511;50.890;8.054;2022-12-07T07:08:28;4.20;99.90
8953;DHT22;4511;50.890;8.054;2022-12-07T07:10:54;4.10;99.90
8953;DHT22;4511;50.890;8.054;2022-12-07T07:13:23;4.10;99.90
8953;DHT22;4511;50.890;8.054;2022-12-07T07:15:50;4.10;99.90
8953;DHT22;4511;50.890;8.054;2022-12-07T07:18:16;4.10;99.90
8953;DHT22;4511;50.890;8.054;2022-12-07T07:20:43;4.10;99.90
8953;DHT22;4511;50.890;8.054;2022-12-07T07:23:11;4.10;99.90
8953;DHT22;4511;50.890;8.054;2022-12-07T07:25:37;4.10;99.90
8953;DHT22;4511;50.890;8.054;2022-12-07T07:28:04;4.10;99.90
8953;DHT22;4511;50.890;8.054;2022-12-07T07:30:32;4.10;99.90
8953;DHT22;4511;50.890;8.054;2022-12-07T07:32:59;4.10;99.90
8953;DHT22;4511;50.890;8.054;2022-12-07T07:35:26;4.20;99.90
8953;DHT22;4511;50.890;8.054;2022-12-07T07:37:54;4.20;99.90
8953;DHT22;4511;50.890;8.054;2022-12-07T07:40:21;4.20;99.90
8953;DHT22;4511;50.890;8.054;2022-12-07T07:42:48;4.20;99.90
8953;DHT22;4511;50.890;8.054;2022-12-07T07:45:15;4.20;99.90
8953;DHT22;4511;50.890;8.054;2022-12-07T07:47:43;4.20;99.90
8953;DHT22;4511;50.890;8.054;2022-12-07T07:50:10;4.20;99.90
8953;DHT22;4511;50.890;8.054;2022-12-07T07:52:36;4.20;99.90
8953;DHT22;4511;50.890;8.054;2022-12-07T07:55:03;4.20;99.90
8953;DHT22;4511;50.890;8.054;2022-12-07T07:57:30;4.20;99.90
8953;DHT22;4511;50.890;8.054;2022-12-07T07:59:57;4.20;99.90
8953;DHT22;4511;50.890;8.054;2022-12-07T08:02:23;4.20;99.90
8953;DHT22;4511;50.890;8.054;2022-12-07T08:04:51;4.20;99.90
8953;DHT22;4511;50.890;8.054;2022-12-07T08:07:18;4.10;99.90
8953;DHT22;4511;50.890;8.054;2022-12-07T08:09:47;4.10;99.90
8953;DHT22;4511;50.890;8.054;2022-12-07T08:12:14;4.10;99.90
8953;DHT22;4511;50.890;8.054;2022-12-07T08:14:41;4.10;99.90
8953;DHT22;4511;50.890;8.054;2022-12-07T08:17:09;4.20;99.90
8953;DHT22;4511;50.890;8.054;2022-12-07T08:19:36;4.10;99.90
8953;DHT22;4511;50.890;8.054;2022-12-07T08:22:04;4.10;99.90
8953;DHT22;4511;50.890;8.054;2022-12-07T08:24:32;4.20;99.90
8953;DHT22;4511;50.890;8.054;2022-12-07T08:27:00;4.20;99.90
8953;DHT22;4511;50.890;8.054;2022-12-07T08:29:27;4.20;99.90
8953;DHT22;4511;50.890;8.054;2022-12-07T08:31:53;4.20;99.90
8953;DHT22;4511;50.890;8.054;2022-12-07T08:34:20;4.30;99.90
8953;DHT22;4511;50.890;8.054;2022-12-07T08:36:46;4.30;99.90
8953;DHT22;4511;50.890;8.054;2022-12-07T08:39:14;4.30;99.90
8953;DHT22;4511;50.890;8.054;2022-12-07T08:41:41;4.30;99.90
8953;DHT22;4511;50.890;8.054;2022-12-07T08:44:07;4.30;99.90
8953;DHT22;4511;50.890;8.054;2022-12-07T08:46:34;4.20;99.90
8953;DHT22;4511;50.890;8.054;2022-12-07T08:49:04;4.20;99.90
8953;DHT22;4511;50.890;8.054;2022-12-07T08:51:32;4.20;99.90
8953;DHT22;4511;50.890;8.054;2022-12-07T08:53:58;4.10;99.90
8953;DHT22;4511;50.890;8.054;2022-12-07T08:56:28;4.20;99.90
8953;DHT22;4511;50.890;8.054;2022-12-07T08:58:54;4.30;99.90
8953;DHT22;4511;50.890;8.054;2022-12-07T09:01:21;4.20;99.90
8953;DHT22;4511;50.890;8.054;2022-12-07T09:03:48;4.30;99.90
8953;DHT22;4511;50.890;8.054;2022-12-07T09:06:14;4.20;99.90
8953;DHT22;4511;50.890;8.054;2022-12-07T09:08:42;4.30;99.90
8953;DHT22;4511;50.890;8.054;2022-12-07T09:11:10;4.30;99.90
8953;DHT22;4511;50.890;8.054;2022-12-07T09:13:38;4.40;99.90
8953;DHT22;4511;50.890;8.054;2022-12-07T09:16:05;4.40;99.90
8953;DHT22;4511;50.890;8.054;2022-12-07T09:18:31;4.40;99.90
8953;DHT22;4511;50.890;8.054;2022-12-07T09:20:58;4.50;99.90
8953;DHT22;4511;50.890;8.054;2022-12-07T09:23:25;4.40;99.90
8953;DHT22;4511;50.890;8.054;2022-12-07T09:25:51;4.40;99.90
8953;DHT22;4511;50.890;8.054;2022-12-07T09:28:18;4.40;99.90
8953;DHT22;4511;50.890;8.054;2022-12-07T09:30:46;4.40;99.90
8953;DHT22;4511;50.890;8.054;2022-12-07T09:33:13;4.40;99.90
8953;DHT22;4511;50.890;8.054;2022-12-07T09:35:43;4.50;99.90
8953;DHT22;4511;50.890;8.054;2022-12-07T09:38:10;4.50;99.90
8953;DHT22;4511;50.890;8.054;2022-12-07T09:40:36;4.40;99.90
8953;DHT22;4511;50.890;8.054;2022-12-07T09:43:03;4.50;99.90
8953;DHT22;4511;50.890;8.054;2022-12-07T09:45:31;4.40;99.90
8953;DHT22;4511;50.890;8.054;2022-12-07T09:48:01;4.50;99.90
8953;DHT22;4511;50.890;8.054;2022-12-07T09:50:29;4.50;99.90
8953;DHT22;4511;50.890;8.054;2022-12-07T09:52:58;4.60;99.90
8953;DHT22;4511;50.890;8.054;2022-12-07T09:55:28;4.60;99.90
8953;DHT22;4511;50.890;8.054;2022-12-07T09:57:56;4.60;99.90
8953;DHT22;4511;50.890;8.054;2022-12-07T10:00:23;4.70;99.90
8953;DHT22;4511;50.890;8.054;2022-12-07T10:02:55;4.60;99.90
8953;DHT22;4511;50.890;8.054;2022-12-07T10:05:24;4.30;99.90
8953;DHT22;4511;50.890;8.054;2022-12-07T10:07:51;4.20;99.90
8953;DHT22;4511;50.890;8.054;2022-12-07T10:10:19;4.30;99.90
8953;DHT22;4511;50.890;8.054;2022-12-07T10:12:58;4.40;99.90
8953;DHT22;4511;50.890;8.054;2022-12-07T10:15:41;4.50;99.90
8953;DHT22;4511;50.890;8.054;2022-12-07T10:18:17;4.40;99.90
8953;DHT22;4511;50.890;8.054;2022-12-07T10:20:46;4.50;99.90
8953;DHT22;4511;50.890;8.054;2022-12-07T10:23:13;4.40;99.90
8953;DHT22;4511;50.890;8.054;2022-12-07T10:25:40;4.50;99.90
8953;DHT22;4511;50.890;8.054;2022-12-07T10:28:11;4.60;99.90
8953;DHT22;4511;50.890;8.054;2022-12-07T10:30:46;4.70;99.90
8953;DHT22;4511;50.890;8.054;2022-12-07T10:33:15;4.80;99.90
8953;DHT22;4511;50.890;8.054;2022-12-07T10:35:54;4.80;99.90
8953;DHT22;4511;50.890;8.054;2022-12-07T10:38:21;4.70;99.90
8953;DHT22;4511;50.890;8.054;2022-12-07T10:40:49;4.70;99.90
8953;DHT22;4511;50.890;8.054;2022-12-07T10:43:28;4.60;99.90
8953;DHT22;4511;50.890;8.054;2022-12-07T10:46:01;4.70;99.90
8953;DHT22;4511;50.890;8.054;2022-12-07T10:48:33;4.70;99.90
8953;DHT22;4511;50.890;8.054;2022-12-07T10:51:07;4.80;99.90
8953;DHT22;4511;50.890;8.054;2022-12-07T10:53:38;4.90;99.90
8953;DHT22;4511;50.890;8.054;2022-12-07T11:01:54;4.90;99.90
8953;DHT22;4511;50.890;8.054;2022-12-07T11:04:24;4.90;99.90
8953;DHT22;4511;50.890;8.054;2022-12-07T11:06:59;4.90;99.90
8953;DHT22;4511;50.890;8.054;2022-12-07T11:09:38;4.90;99.90
8953;DHT22;4511;50.890;8.054;2022-12-07T11:12:09;4.80;99.90
8953;DHT22;4511;50.890;8.054;2022-12-07T11:14:41;4.80;99.90
8953;DHT22;4511;50.890;8.054;2022-12-07T11:17:13;4.80;99.90
8953;DHT22;4511;50.890;8.054;2022-12-07T11:19:48;4.90;99.90
8953;DHT22;4511;50.890;8.054;2022-12-07T11:22:20;4.90;99.90
8953;DHT22;4511;50.890;8.054;2022-12-07T11:24:50;4.90;99.90
8953;DHT22;4511;50.890;8.054;2022-12-07T11:27:21;4.90;99.90
8953;DHT22;4511;50.890;8.054;2022-12-07T11:29:53;4.90;99.90
8953;DHT22;4511;50.890;8.054;2022-12-07T11:32:27;5.00;99.90
8953;DHT22;4511;50.890;8.054;2022-12-07T11:34:59;4.90;99.90
8953;DHT22;4511;50.890;8.054;2022-12-07T11:37:31;4.90;99.90
8953;DHT22;4511;50.890;8.054;2022-12-07T11:39:59;4.90;99.90
8953;DHT22;4511;50.890;8.054;2022-12-07T11:42:27;5.00;99.90
8953;DHT22;4511;50.890;8.054;2022-12-07T11:44:56;5.00;99.90
8953;DHT22;4511;50.890;8.054;2022-12-07T11:47:28;5.00;99.90
8953;DHT22;4511;50.890;8.054;2022-12-07T11:49:58;5.00;99.90
8953;DHT22;4511;50.890;8.054;2022-12-07T11:52:30;5.00;99.90
8953;DHT22;4511;50.890;8.054;2022-12-07T11:54:59;5.00;99.90
8953;DHT22;4511;50.890;8.054;2022-12-07T11:57:28;4.90;99.90
8953;DHT22;4511;50.890;8.054;2022-12-07T12:00:00;4.80;99.90
8953;DHT22;4511;50.890;8.054;2022-12-07T12:02:28;4.90;99.90
8953;DHT22;4511;50.890;8.054;2022-12-07T12:05:01;5.10;99.90
8953;DHT22;4511;50.890;8.054;2022-12-07T12:07:30;5.40;99.90
8953;DHT22;4511;50.890;8.054;2022-12-07T12:09:59;5.60;99.90
8953;DHT22;4511;50.890;8.054;2022-12-07T12:12:39;5.60;99.90
8953;DHT22;4511;50.890;8.054;2022-12-07T12:15:16;5.80;99.90
8953;DHT22;4511;50.890;8.054;2022-12-07T12:17:49;6.20;99.90
8953;DHT22;4511;50.890;8.054;2022-12-07T12:20:19;6.20;99.90
8953;DHT22;4511;50.890;8.054;2022-12-07T12:22:48;6.20;99.90
8953;DHT22;4511;50.890;8.054;2022-12-07T12:25:19;6.10;99.90
8953;DHT22;4511;50.890;8.054;2022-12-07T12:27:48;6.10;99.90
8953;DHT22;4511;50.890;8.054;2022-12-07T12:30:24;6.20;99.90
8953;DHT22;4511;50.890;8.054;2022-12-07T12:32:53;6.20;99.90
8953;DHT22;4511;50.890;8.054;2022-12-07T12:35:29;6.10;99.90
8953;DHT22;4511;50.890;8.054;2022-12-07T12:38:20;6.20;99.90
8953;DHT22;4511;50.890;8.054;2022-12-07T12:40:51;6.20;99.90
8953;DHT22;4511;50.890;8.054;2022-12-07T12:49:13;5.60;99.90
8953;DHT22;4511;50.890;8.054;2022-12-07T12:51:41;5.90;99.90
8953;DHT22;4511;50.890;8.054;2022-12-07T12:54:10;5.90;99.90
8953;DHT22;4511;50.890;8.054;2022-12-07T12:56:40;5.90;99.90
8953;DHT22;4511;50.890;8.054;2022-12-07T12:59:21;6.00;99.90
8953;DHT22;4511;50.890;8.054;2022-12-07T13:01:49;6.00;99.90
8953;DHT22;4511;50.890;8.054;2022-12-07T13:04:17;5.90;99.90
8953;DHT22;4511;50.890;8.054;2022-12-07T13:06:44;5.90;99.90
8953;DHT22;4511;50.890;8.054;2022-12-07T13:09:17;6.00;99.90
8953;DHT22;4511;50.890;8.054;2022-12-07T13:11:46;6.00;99.90
8953;DHT22;4511;50.890;8.054;2022-12-07T13:16:58;5.90;99.90
8953;DHT22;4511;50.890;8.054;2022-12-07T13:22:36;6.10;99.90
8953;DHT22;4511;50.890;8.054;2022-12-07T13:25:07;6.00;99.90
8953;DHT22;4511;50.890;8.054;2022-12-07T13:27:35;6.00;99.90
8953;DHT22;4511;50.890;8.054;2022-12-07T13:30:06;6.10;99.90
8953;DHT22;4511;50.890;8.054;2022-12-07T13:32:34;6.00;99.90
8953;DHT22;4511;50.890;8.054;2022-12-07T13:35:00;6.00;99.90
8953;DHT22;4511;50.890;8.054;2022-12-07T13:37:47;5.90;99.90
8953;DHT22;4511;50.890;8.054;2022-12-07T13:40:16;5.90;99.90
8953;DHT22;4511;50.890;8.054;2022-12-07T13:42:45;5.90;99.90
8953;DHT22;4511;50.890;8.054;2022-12-07T13:45:20;5.70;99.90
8953;DHT22;4511;50.890;8.054;2022-12-07T13:47:48;5.70;99.90
8953;DHT22;4511;50.890;8.054;2022-12-07T13:50:22;5.60;99.90
8953;DHT22;4511;50.890;8.054;2022-12-07T13:52:54;5.50;99.90
8953;DHT22;4511;50.890;8.054;2022-12-07T13:55:21;5.30;99.90
8953;DHT22;4511;50.890;8.054;2022-12-07T13:57:49;5.40;99.90
8953;DHT22;4511;50.890;8.054;2022-12-07T14:00:18;5.50;99.90
8953;DHT22;4511;50.890;8.054;2022-12-07T14:02:54;5.50;99.90
8953;DHT22;4511;50.890;8.054;2022-12-07T14:05:23;5.50;99.90
8953;DHT22;4511;50.890;8.054;2022-12-07T14:07:53;5.50;99.90
8953;DHT22;4511;50.890;8.054;2022-12-07T14:10:24;5.40;99.90
8953;DHT22;4511;50.890;8.054;2022-12-07T14:12:52;5.30;99.90
8953;DHT22;4511;50.890;8.054;2022-12-07T14:15:19;5.40;99.90
8953;DHT22;4511;50.890;8.054;2022-12-07T14:17:51;5.30;99.90
8953;DHT22;4511;50.890;8.054;2022-12-07T14:20:28;5.30;99.90
8953;DHT22;4511;50.890;8.054;2022-12-07T14:22:55;5.30;99.90
8953;DHT22;4511;50.890;8.054;2022-12-07T14:25:22;5.30;99.90
8953;DHT22;4511;50.890;8.054;2022-12-07T14:27:52;5.30;99.90
8953;DHT22;4511;50.890;8.054;2022-12-07T14:30:21;5.30;99.90
8953;DHT22;4511;50.890;8.054;2022-12-07T14:32:49;5.30;99.90
8953;DHT22;4511;50.890;8.054;2022-12-07T14:35:17;5.30;99.90
8953;DHT22;4511;50.890;8.054;2022-12-07T14:37:45;5.20;99.90
8953;DHT22;4511;50.890;8.054;2022-12-07T14:40:12;5.10;99.90
8953;DHT22;4511;50.890;8.054;2022-12-07T14:42:39;5.10;99.90
8953;DHT22;4511;50.890;8.054;2022-12-07T14:45:12;5.00;99.90
8953;DHT22;4511;50.890;8.054;2022-12-07T14:47:39;5.00;99.90
8953;DHT22;4511;50.890;8.054;2022-12-07T14:50:06;5.10;99.90
8953;DHT22;4511;50.890;8.054;2022-12-07T14:52:33;5.10;99.90
8953;DHT22;4511;50.890;8.054;2022-12-07T14:55:00;5.00;99.90
8953;DHT22;4511;50.890;8.054;2022-12-07T14:57:26;5.00;99.90
8953;DHT22;4511;50.890;8.054;2022-12-07T14:59:53;5.00;99.90
8953;DHT22;4511;50.890;8.054;2022-12-07T15:02:21;5.00;99.90
8953;DHT22;4511;50.890;8.054;2022-12-07T15:04:48;5.00;99.90
8953;DHT22;4511;50.890;8.054;2022-12-07T15:07:16;5.00;99.90
8953;DHT22;4511;50.890;8.054;2022-12-07T15:09:44;5.20;99.90
8953;DHT22;4511;50.890;8.054;2022-12-07T15:12:11;5.30;99.90
8953;DHT22;4511;50.890;8.054;2022-12-07T15:14:37;5.30;99.90
8953;DHT22;4511;50.890;8.054;2022-12-07T15:17:04;5.30;99.90
8953;DHT22;4511;50.890;8.054;2022-12-07T15:19:33;5.20;99.90
8953;DHT22;4511;50.890;8.054;2022-12-07T15:22:00;5.10;99.90
8953;DHT22;4511;50.890;8.054;2022-12-07T15:24:27;5.10;99.90
8953;DHT22;4511;50.890;8.054;2022-12-07T15:26:53;5.00;99.90
8953;DHT22;4511;50.890;8.054;2022-12-07T15:29:20;5.00;99.90
8953;DHT22;4511;50.890;8.054;2022-12-07T15:31:47;5.00;99.90
8953;DHT22;4511;50.890;8.054;2022-12-07T15:34:14;5.00;99.90
8953;DHT22;4511;50.890;8.054;2022-12-07T15:36:42;5.00;99.90
8953;DHT22;4511;50.890;8.054;2022-12-07T15:39:09;5.00;99.90
8953;DHT22;4511;50.890;8.054;2022-12-07T15:41:37;5.00;99.90
8953;DHT22;4511;50.890;8.054;2022-12-07T15:44:04;5.20;99.90
8953;DHT22;4511;50.890;8.054;2022-12-07T15:46:48;5.10;99.90
8953;DHT22;4511;50.890;8.054;2022-12-07T15:49:16;5.00;99.90
8953;DHT22;4511;50.890;8.054;2022-12-07T15:51:45;4.90;99.90
8953;DHT22;4511;50.890;8.054;2022-12-07T15:54:13;4.80;99.90
8953;DHT22;4511;50.890;8.054;2022-12-07T15:56:39;4.80;99.90
8953;DHT22;4511;50.890;8.054;2022-12-07T15:59:06;4.60;99.90
8953;DHT22;4511;50.890;8.054;2022-12-07T16:01:33;4.50;99.90
8953;DHT22;4511;50.890;8.054;2022-12-07T16:03:59;4.50;99.90
8953;DHT22;4511;50.890;8.054;2022-12-07T16:06:26;4.40;99.90
8953;DHT22;4511;50.890;8.054;2022-12-07T16:08:54;4.30;99.90
8953;DHT22;4511;50.890;8.054;2022-12-07T16:11:21;4.30;99.90
8953;DHT22;4511;50.890;8.054;2022-12-07T16:13:47;4.30;99.90
8953;DHT22;4511;50.890;8.054;2022-12-07T16:16:15;4.20;99.90
8953;DHT22;4511;50.890;8.054;2022-12-07T16:18:43;4.20;99.90
8953;DHT22;4511;50.890;8.054;2022-12-07T16:21:10;4.30;99.90
8953;DHT22;4511;50.890;8.054;2022-12-07T16:23:37;4.20;99.90
8953;DHT22;4511;50.890;8.054;2022-12-07T16:26:05;4.30;99.90
8953;DHT22;4511;50.890;8.054;2022-12-07T16:28:32;4.30;99.90
8953;DHT22;4511;50.890;8.054;2022-12-07T16:31:00;4.30;99.90
8953;DHT22;4511;50.890;8.054;2022-12-07T16:33:27;4.30;99.90
8953;DHT22;4511;50.890;8.054;2022-12-07T16:35:53;4.30;99.90
8953;DHT22;4511;50.890;8.054;2022-12-07T16:38:20;4.30;99.90
8953;DHT22;4511;50.890;8.054;2022-12-07T16:40:46;4.30;99.90
8953;DHT22;4511;50.890;8.054;2022-12-07T16:43:14;4.40;99.90